Time;durP1;ratioP1;P1;durP2;ratioP2;P2;SDS_P1;SDS_P2;PMS_P1;PMS_P2;Temp;Humidity;BMP_temperature;BMP_pressure;BME280_temperature;BME280_humidity;BME280_pressure;Samples;Min_cycle;Max_cycle;Signal;HPM_P1;HPM_P2
2021/11/15 00:01:50;;;;;;;61.50;45.65;;;;;;;16.08;27.88;95004.09;5076233;28;20048;-55
2021/11/15 00:04:19;;;;;;;59.08;44.13;;;;;;;15.40;29.72;95004.22;5075761;28;20044;-62
2021/11/15 00:06:46;;;;;;;59.10;44.42;;;;;;;15.48;30.51;95009.84;5088321;28;20059;-56
2021/11/15 00:09:13;;;;;;;54.95;43.25;;;;;;;15.39;30.67;95007.16;5064286;28;20055;-55
2021/11/15 00:11:40;;;;;;;54.25;41.90;;;;;;;16.09;29.61;95003.81;5075195;28;20059;-48
2021/11/15 00:14:08;;;;;;;52.80;41.00;;;;;;;16.01;29.87;95013.25;5075178;28;20055;-52
2021/11/15 00:16:36;;;;;;;51.50;41.67;;;;;;;15.54;30.48;95014.69;5092020;28;20359;-50
2021/11/15 00:19:03;;;;;;;55.75;42.03;;;;;;;15.59;30.13;95006.66;5084221;28;20051;-48
2021/11/15 00:21:30;;;;;;;53.28;40.05;;;;;;;15.38;31.33;95001.13;5074488;28;20063;-55
2021/11/15 00:23:57;;;;;;;53.38;41.63;;;;;;;15.32;31.47;94996.25;5075809;28;20044;-56
2021/11/15 00:26:25;;;;;;;48.17;38.00;;;;;;;15.45;31.30;95005.19;5090117;28;20052;-56
2021/11/15 00:28:52;;;;;;;49.55;38.97;;;;;;;15.47;31.40;95003.00;5089882;28;20040;-55
2021/11/15 00:31:19;;;;;;;48.95;39.15;;;;;;;15.73;30.60;95001.34;5074848;28;20051;-56
2021/11/15 00:33:46;;;;;;;48.88;38.92;;;;;;;15.49;31.44;95006.91;5075127;28;20475;-56
2021/11/15 00:36:13;;;;;;;49.97;39.13;;;;;;;15.26;32.40;95008.75;5074550;28;20052;-55
2021/11/15 00:38:40;;;;;;;51.22;39.60;;;;;;;15.56;31.24;95006.47;5075238;28;20059;-56
2021/11/15 00:41:08;;;;;;;47.97;39.05;;;;;;;15.65;31.09;95002.84;5075482;28;20048;-56
2021/11/15 00:43:36;;;;;;;48.50;37.65;;;;;;;15.63;31.55;95001.59;5074578;28;20474;-55
2021/11/15 00:46:03;;;;;;;50.72;38.70;;;;;;;15.19;32.01;95012.91;5054354;28;20052;-54
2021/11/15 00:48:31;;;;;;;47.67;39.13;;;;;;;15.25;31.75;95016.97;5052170;28;20061;-55
2021/11/15 00:50:58;;;;;;;53.00;40.17;;;;;;;15.36;31.68;95013.81;5074383;28;20055;-53
2021/11/15 00:53:27;;;;;;;51.35;40.33;;;;;;;15.47;31.76;95008.28;5074688;28;20052;-55
2021/11/15 00:55:56;;;;;;;51.97;40.75;;;;;;;15.30;32.13;95004.44;5076024;28;20053;-56
2021/11/15 00:58:23;;;;;;;53.30;41.47;;;;;;;15.25;32.35;95007.22;5094242;28;20447;-55
2021/11/15 01:00:50;;;;;;;55.67;42.55;;;;;;;15.83;31.54;95006.34;5094524;28;20509;-51
2021/11/15 01:03:18;;;;;;;53.38;41.78;;;;;;;15.93;31.55;95000.03;5095235;28;20051;-47
2021/11/15 01:05:48;;;;;;;51.10;40.95;;;;;;;15.82;31.79;95007.41;5083244;28;20045;-50
2021/11/15 01:08:17;;;;;;;51.85;40.92;;;;;;;15.70;32.12;95012.47;5074050;28;20056;-50
2021/11/15 01:10:45;;;;;;;52.13;39.65;;;;;;;15.62;32.61;95007.94;5074811;28;20052;-47
2021/11/15 01:13:13;;;;;;;52.03;40.70;;;;;;;16.12;31.25;95012.97;5074130;28;20044;-53
2021/11/15 01:15:40;;;;;;;51.90;41.22;;;;;;;16.01;31.43;95007.97;5073511;28;20044;-50
2021/11/15 01:18:08;;;;;;;51.45;39.75;;;;;;;16.97;30.44;95005.59;5070084;28;20052;-52
2021/11/15 01:20:35;;;;;;;47.17;38.75;;;;;;;16.77;30.89;95007.72;5071001;28;20044;-56
2021/11/15 01:23:04;;;;;;;50.45;39.28;;;;;;;16.07;33.09;95010.47;5074977;28;20056;-56
2021/11/15 01:25:32;;;;;;;49.45;39.25;;;;;;;15.80;34.21;95009.56;5072889;28;20359;-54
2021/11/15 01:27:59;;;;;;;48.60;38.70;;;;;;;16.01;34.14;95007.19;5084620;28;20058;-54
2021/11/15 01:30:26;;;;;;;54.53;40.13;;;;;;;17.16;31.08;94993.59;5076906;28;20048;-55
2021/11/15 01:32:54;;;;;;;56.33;41.90;;;;;;;17.27;31.23;94997.50;5055326;28;20045;-50
2021/11/15 01:35:22;;;;;;;51.00;40.47;;;;;;;16.17;33.37;94995.16;5066842;28;20359;-47
2021/11/15 01:37:50;;;;;;;54.85;41.75;;;;;;;15.54;34.66;94993.59;5070785;28;20041;-50
2021/11/15 01:40:24;;;;;;;50.30;39.17;;;;;;;16.85;32.65;94999.03;5053621;28;20056;-56
2021/11/15 01:42:52;;;;;;;51.03;38.22;;;;;;;17.05;31.96;94999.50;5054525;28;20045;-56
2021/11/15 01:45:23;;;;;;;55.35;40.75;;;;;;;15.73;33.92;95001.34;5066311;28;20668;-53
2021/11/15 01:47:56;;;;;;;57.40;42.90;;;;;;;15.82;33.99;94999.50;5080881;28;20496;-55
2021/11/15 01:50:24;;;;;;;52.05;39.30;;;;;;;15.37;34.74;94999.56;5073513;28;20081;-54
2021/11/15 01:52:52;;;;;;;56.95;40.63;;;;;;;15.10;35.34;95004.94;5070848;28;20063;-54
2021/11/15 01:55:22;;;;;;;51.40;40.05;;;;;;;14.95;35.51;95002.66;5066638;28;20044;-56
2021/11/15 01:57:50;;;;;;;54.13;39.80;;;;;;;14.84;35.69;95006.59;5072463;28;20056;-54
2021/11/15 02:00:23;;;;;;;52.88;38.78;;;;;;;15.28;34.72;94997.94;5063852;28;20072;-54
2021/11/15 02:02:50;;;;;;;53.90;38.95;;;;;;;15.45;34.28;94999.91;5053994;28;20061;-56
2021/11/15 02:05:18;;;;;;;48.95;37.20;;;;;;;15.22;34.53;94988.59;5065005;28;20059;-55
2021/11/15 02:07:45;;;;;;;54.08;39.17;;;;;;;16.24;32.56;94984.94;5065424;28;20049;-54
2021/11/15 02:10:12;;;;;;;56.75;40.95;;;;;;;15.33;33.97;94998.56;5093617;28;20354;-56
2021/11/15 02:12:40;;;;;;;56.83;41.10;;;;;;;16.49;32.00;94994.00;5090367;28;20344;-55
2021/11/15 02:15:13;;;;;;;59.53;42.63;;;;;;;15.51;33.61;94988.16;5063956;28;20037;-56
2021/11/15 02:17:45;;;;;;;60.35;42.88;;;;;;;16.87;30.77;94991.56;5073954;28;20063;-55
2021/11/15 02:20:18;;;;;;;57.58;43.78;;;;;;;15.85;32.21;94988.34;5055671;28;20052;-56
2021/11/15 02:22:47;;;;;;;55.20;41.88;;;;;;;15.66;32.63;94999.13;5053861;28;20056;-55
2021/11/15 02:25:16;;;;;;;57.10;42.80;;;;;;;15.60;32.90;94992.41;5054802;28;20048;-55
2021/11/15 02:27:43;;;;;;;57.47;44.42;;;;;;;15.55;33.01;94984.63;5054268;28;20041;-54
2021/11/15 02:30:15;;;;;;;59.60;44.47;;;;;;;15.70;32.62;94989.53;5065582;28;20091;-57
2021/11/15 02:32:43;;;;;;;61.00;44.60;;;;;;;16.48;31.31;94981.13;5053883;28;20041;-54
2021/11/15 02:35:11;;;;;;;54.85;42.30;;;;;;;15.65;33.03;94991.53;5062109;28;20275;-51
2021/11/15 02:37:38;;;;;;;57.22;43.88;;;;;;;15.68;32.96;94988.28;5072812;28;20367;-54
2021/11/15 02:40:07;;;;;;;52.97;43.55;;;;;;;15.88;32.49;94977.22;5085534;28;20435;-51
2021/11/15 02:42:35;;;;;;;55.08;41.30;;;;;;;16.00;32.57;94980.03;5093915;28;20059;-54
2021/11/15 02:45:05;;;;;;;52.53;40.22;;;;;;;15.76;33.45;94978.84;5083949;28;20351;-55
2021/11/15 02:47:32;;;;;;;55.70;41.25;;;;;;;15.48;33.62;94984.28;5072776;28;20443;-53
2021/11/15 02:50:00;;;;;;;56.75;41.22;;;;;;;15.10;34.14;94995.19;5045694;28;20057;-51
2021/11/15 02:52:28;;;;;;;53.92;40.95;;;;;;;15.47;33.48;94995.88;5053551;28;20061;-54
2021/11/15 02:54:59;;;;;;;49.03;37.95;;;;;;;15.01;34.44;94986.44;5060589;28;20051;-52
2021/11/15 02:57:26;;;;;;;48.78;37.72;;;;;;;15.13;34.63;95004.34;5073610;28;20051;-55
2021/11/15 02:59:55;;;;;;;53.55;39.03;;;;;;;14.89;35.10;95009.09;5069075;28;20041;-53
2021/11/15 03:02:24;;;;;;;49.55;37.83;;;;;;;15.66;33.74;95008.91;5052856;28;20053;-55
2021/11/15 03:04:52;;;;;;;51.35;39.42;;;;;;;15.83;33.51;95006.34;5059694;28;20052;-54
2021/11/15 03:07:19;;;;;;;53.13;38.10;;;;;;;15.53;33.76;95001.81;5073427;28;20049;-54
2021/11/15 03:09:46;;;;;;;53.65;38.70;;;;;;;15.75;33.26;94999.16;5082633;28;20055;-51
2021/11/15 03:12:13;;;;;;;49.40;37.97;;;;;;;15.67;33.54;95008.59;5093508;28;20044;-51
2021/11/15 03:14:40;;;;;;;47.88;37.42;;;;;;;15.62;33.58;95008.72;5087446;28;20067;-55
2021/11/15 03:17:09;;;;;;;52.90;38.58;;;;;;;15.94;33.37;95005.00;5075690;28;20044;-54
2021/11/15 03:19:36;;;;;;;49.80;38.63;;;;;;;16.07;33.04;95000.69;5054169;28;20057;-54
2021/11/15 03:22:03;;;;;;;52.72;39.55;;;;;;;15.79;33.11;95008.03;5057063;28;20049;-55
2021/11/15 03:24:31;;;;;;;53.45;39.33;;;;;;;15.79;33.42;95010.66;5055538;28;20075;-54
2021/11/15 03:26:59;;;;;;;53.78;40.22;;;;;;;15.97;33.04;95001.75;5076155;28;20052;-56
2021/11/15 03:29:26;;;;;;;51.10;39.10;;;;;;;16.26;32.65;95000.47;5069776;28;20064;-56
2021/11/15 03:31:53;;;;;;;48.65;38.15;;;;;;;16.52;32.09;95006.56;5056806;28;20045;-54
2021/11/15 03:34:20;;;;;;;51.53;38.53;;;;;;;16.13;32.73;95003.97;5057755;28;20384;-51
2021/11/15 03:36:47;;;;;;;54.67;41.92;;;;;;;17.49;29.81;94998.41;5063387;28;20045;-51
2021/11/15 03:39:16;;;;;;;55.50;39.55;;;;;;;18.06;28.63;95006.03;5070458;28;20047;-59
2021/11/15 03:41:45;;;;;;;53.58;41.28;;;;;;;17.64;29.18;95003.16;5056203;28;20684;-55
2021/11/15 03:44:12;;;;;;;52.47;39.63;;;;;;;17.36;29.24;95007.25;5056371;28;20053;-55
2021/11/15 03:46:40;;;;;;;53.65;40.42;;;;;;;17.22;29.54;94997.66;5056008;28;20044;-57
2021/11/15 03:49:07;;;;;;;53.70;41.85;;;;;;;16.95;30.25;95003.25;5057159;28;20053;-56
2021/11/15 03:51:34;;;;;;;53.22;40.55;;;;;;;16.36;31.69;95008.09;5059723;28;20447;-54
2021/11/15 03:54:02;;;;;;;53.70;42.33;;;;;;;16.23;31.88;95009.75;5055705;28;20052;-54
2021/11/15 03:56:29;;;;;;;51.90;40.58;;;;;;;16.41;31.73;95004.53;5074094;28;20071;-53
2021/11/15 03:58:58;;;;;;;53.70;41.03;;;;;;;15.82;32.80;95010.06;5078623;28;20478;-52
2021/11/15 04:01:29;;;;;;;53.72;40.03;;;;;;;16.13;32.46;95004.75;5069923;28;20057;-57
2021/11/15 04:04:01;;;;;;;54.88;41.50;;;;;;;15.93;32.66;95016.63;5056221;28;20048;-56
2021/11/15 04:06:33;;;;;;;58.27;41.73;;;;;;;15.60;32.81;95007.44;5073960;28;20048;-56
2021/11/15 04:09:05;;;;;;;57.15;41.28;;;;;;;15.48;33.36;95012.47;5074307;28;20305;-53
2021/11/15 04:11:32;;;;;;;53.80;40.80;;;;;;;16.43;31.75;95000.50;5075901;28;20067;-51
2021/11/15 04:14:03;;;;;;;55.10;40.95;;;;;;;16.06;32.15;94998.38;5076240;28;20051;-53
2021/11/15 04:16:31;;;;;;;56.47;42.38;;;;;;;16.30;31.95;94998.75;5075905;28;20648;-51
2021/11/15 04:19:05;;;;;;;62.08;45.03;;;;;;;15.69;32.55;95000.38;5066959;28;20058;-55
2021/11/15 04:21:34;;;;;;;67.72;47.88;;;;;;;15.85;32.60;94998.91;5075668;28;20052;-47
2021/11/15 04:24:01;;;;;;;56.42;43.13;;;;;;;16.33;31.76;94995.50;5075810;28;20462;-55
2021/11/15 04:26:28;;;;;;;58.72;45.83;;;;;;;16.30;31.76;94994.25;5074882;28;20056;-49
2021/11/15 04:28:56;;;;;;;58.10;43.15;;;;;;;16.53;31.28;94999.44;5077665;28;20044;-54
2021/11/15 04:31:24;;;;;;;52.42;39.25;;;;;;;17.08;30.27;95002.31;5068357;28;20049;-54
2021/11/15 04:33:52;;;;;;;50.35;40.22;;;;;;;16.42;31.35;95006.88;5055273;28;20045;-54
2021/11/15 04:36:20;;;;;;;48.35;39.47;;;;;;;16.55;31.04;95000.69;5055328;28;20052;-54
2021/11/15 04:38:47;;;;;;;49.10;37.90;;;;;;;16.65;30.84;95004.88;5068399;28;20045;-58
2021/11/15 04:41:14;;;;;;;50.15;38.55;;;;;;;16.51;31.38;94996.34;5075550;28;20331;-55
2021/11/15 04:43:41;;;;;;;48.50;38.88;;;;;;;16.40;31.69;95003.00;5075503;28;20048;-51
2021/11/15 04:46:08;;;;;;;47.58;37.92;;;;;;;16.23;31.81;95001.06;5075441;28;20115;-53
2021/11/15 04:48:35;;;;;;;48.75;38.35;;;;;;;16.37;31.20;95007.00;5066355;28;20045;-58
2021/11/15 04:51:02;;;;;;;46.40;37.35;;;;;;;16.71;30.81;95016.13;5075136;28;20056;-56
2021/11/15 04:53:30;;;;;;;48.65;37.42;;;;;;;16.56;30.66;95002.22;5074649;28;20451;-55
2021/11/15 04:55:57;;;;;;;49.17;38.10;;;;;;;16.48;31.36;95008.28;5075135;28;20367;-48
2021/11/15 04:58:24;;;;;;;47.60;36.67;;;;;;;16.10;31.95;95015.91;5074950;28;20040;-51
2021/11/15 05:00:51;;;;;;;47.38;38.45;;;;;;;16.42;30.75;95014.78;5074177;28;20040;-55
2021/11/15 05:03:21;;;;;;;46.45;36.75;;;;;;;17.12;29.74;95019.09;5074997;28;20060;-54
2021/11/15 05:05:48;;;;;;;48.05;37.22;;;;;;;16.02;30.29;95020.06;5075284;28;20052;-54
2021/11/15 05:08:15;;;;;;;45.78;36.65;;;;;;;16.04;31.32;95019.78;5079314;28;20055;-55
2021/11/15 05:10:42;;;;;;;47.08;38.25;;;;;;;16.09;31.52;95026.75;5076696;28;20055;-53
2021/11/15 05:13:09;;;;;;;50.08;38.30;;;;;;;16.07;31.61;95026.28;5075200;28;20358;-53
2021/11/15 05:15:36;;;;;;;45.63;36.42;;;;;;;16.01;30.65;95036.97;5068930;28;20048;-53
2021/11/15 05:18:04;;;;;;;47.85;37.22;;;;;;;16.24;31.17;95036.91;5071886;28;20067;-55
2021/11/15 05:20:31;;;;;;;50.97;38.72;;;;;;;16.13;31.59;95038.25;5070565;28;20051;-51
2021/11/15 05:22:58;;;;;;;50.33;38.35;;;;;;;16.02;32.07;95050.94;5070571;28;20048;-57
2021/11/15 05:25:26;;;;;;;49.22;36.65;;;;;;;15.32;31.84;95049.72;5062451;28;20042;-73
2021/11/15 05:27:54;;;;;;;46.88;38.22;;;;;;;15.58;32.56;95046.47;5072674;28;20383;-72
2021/11/15 05:30:21;;;;;;;47.50;37.88;;;;;;;16.13;31.88;95044.31;5072194;28;20048;-65
2021/11/15 05:32:51;;;;;;;48.47;36.83;;;;;;;16.40;31.32;95045.22;5064764;28;20463;-51
2021/11/15 05:35:19;;;;;;;45.80;37.42;;;;;;;16.44;31.49;95049.56;5054426;28;20067;-66
2021/11/15 05:37:48;;;;;;;47.42;37.13;;;;;;;15.87;32.41;95054.72;5058950;28;20064;-64
2021/11/15 05:40:16;;;;;;;45.78;37.33;;;;;;;15.68;32.60;95059.44;5080542;28;20049;-61
2021/11/15 05:42:43;;;;;;;44.72;36.30;;;;;;;16.23;31.72;95053.84;5074345;28;20048;-68
2021/11/15 05:45:12;;;;;;;49.65;38.22;;;;;;;16.08;31.77;95070.03;5073601;28;20044;-68
2021/11/15 05:47:42;;;;;;;49.25;38.53;;;;;;;16.03;32.15;95057.78;5074050;28;20052;-59
2021/11/15 05:50:10;;;;;;;45.40;36.55;;;;;;;16.10;31.64;95067.88;5052401;28;20522;-62
2021/11/15 05:52:42;;;;;;;45.30;35.80;;;;;;;16.40;30.88;95067.09;5074508;28;20056;-57
2021/11/15 05:55:16;;;;;;;47.35;36.63;;;;;;;16.49;30.96;95075.81;5074317;28;20040;-67
2021/11/15 05:57:43;;;;;;;44.33;36.25;;;;;;;16.24;31.20;95076.50;5074065;28;20398;-66
2021/11/15 06:00:13;;;;;;;48.13;38.13;;;;;;;15.31;33.31;95081.63;5073994;28;20051;-63
2021/11/15 06:02:41;;;;;;;47.20;36.88;;;;;;;14.79;34.11;95078.53;5062521;28;20053;-64
2021/11/15 06:05:09;;;;;;;45.80;36.78;;;;;;;16.51;31.18;95076.28;5054235;28;20049;-68
2021/11/15 06:07:36;;;;;;;51.85;39.40;;;;;;;16.34;31.14;95086.75;5055322;28;20087;-69
2021/11/15 06:10:06;;;;;;;52.97;39.95;;;;;;;16.00;32.08;95077.63;5083092;28;20053;-71
2021/11/15 06:12:34;;;;;;;52.38;39.53;;;;;;;15.94;32.19;95081.47;5074045;28;20052;-65
2021/11/15 06:15:02;;;;;;;51.95;39.80;;;;;;;15.92;33.04;95078.34;5073985;28;20359;-70
2021/11/15 06:17:29;;;;;;;52.75;38.63;;;;;;;16.12;33.20;95087.59;5073967;28;20447;-63
2021/11/15 06:19:56;;;;;;;49.35;38.85;;;;;;;17.01;31.57;95081.25;5072489;28;20060;-69
2021/11/15 06:22:23;;;;;;;45.28;35.90;;;;;;;16.48;32.70;95079.53;5054373;28;20055;-67
2021/11/15 06:24:50;;;;;;;44.25;36.47;;;;;;;16.30;33.25;95086.59;5053818;28;20057;-74
2021/11/15 06:27:18;;;;;;;47.15;37.88;;;;;;;16.23;33.48;95088.91;5053910;28;20045;-67
2021/11/15 06:29:46;;;;;;;47.97;37.75;;;;;;;16.19;33.88;95097.72;5072318;28;20390;-67
2021/11/15 06:32:14;;;;;;;48.65;37.65;;;;;;;16.14;33.59;95092.59;5072884;28;20363;-67
2021/11/15 06:34:41;;;;;;;45.67;36.80;;;;;;;16.11;33.75;95095.81;5073372;28;20057;-67
2021/11/15 06:37:08;;;;;;;45.30;37.78;;;;;;;16.06;33.96;95103.84;5073991;28;20052;-67
2021/11/15 06:39:36;;;;;;;47.80;37.55;;;;;;;16.05;33.85;95097.81;5072250;28;20053;-67
2021/11/15 06:42:03;;;;;;;49.53;38.13;;;;;;;16.09;34.05;95103.25;5073523;28;20359;-67
2021/11/15 06:44:31;;;;;;;50.72;39.88;;;;;;;16.55;33.12;95100.97;5073616;28;20055;-67
2021/11/15 06:46:59;;;;;;;51.45;38.22;;;;;;;16.24;34.05;95101.00;5073825;28;20055;-66
2021/11/15 06:49:27;;;;;;;46.35;38.53;;;;;;;16.35;33.77;95101.50;5061647;28;20566;-67
2021/11/15 06:51:54;;;;;;;53.13;39.90;;;;;;;16.29;33.86;95095.59;5065819;28;20481;-67
2021/11/15 06:54:22;;;;;;;49.78;40.05;;;;;;;16.55;33.87;95102.84;5075892;28;20048;-74
2021/11/15 06:56:49;;;;;;;50.55;40.47;;;;;;;16.62;33.70;95095.25;5076928;28;20063;-71
2021/11/15 06:59:16;;;;;;;49.08;39.35;;;;;;;16.77;33.21;95088.81;5077305;28;20051;-67
2021/11/15 07:01:43;;;;;;;49.85;40.20;;;;;;;17.11;32.82;95096.78;5077226;28;20043;-67
2021/11/15 07:04:12;;;;;;;55.28;43.08;;;;;;;16.81;33.20;95095.03;5057590;28;20048;-68
2021/11/15 07:06:41;;;;;;;57.72;42.63;;;;;;;16.96;33.46;95099.88;5057394;28;20044;-68
2021/11/15 07:09:09;;;;;;;53.50;40.28;;;;;;;16.84;33.54;95100.47;5071247;28;20449;-67
2021/11/15 07:11:37;;;;;;;52.42;40.13;;;;;;;17.03;32.97;95099.41;5077192;28;20049;-65
2021/11/15 07:14:06;;;;;;;52.30;41.05;;;;;;;17.36;32.85;95091.81;5072954;28;20052;-64
2021/11/15 07:16:33;;;;;;;53.08;42.15;;;;;;;17.49;32.71;95090.91;5057147;28;20370;-65
2021/11/15 07:19:00;;;;;;;53.05;39.88;;;;;;;17.56;32.42;95102.56;5061486;28;20052;-65
2021/11/15 07:21:27;;;;;;;53.20;40.58;;;;;;;17.52;32.45;95095.56;5076846;28;20366;-64
2021/11/15 07:23:54;;;;;;;48.60;38.03;;;;;;;18.01;31.63;95104.09;5073515;28;20049;-62
2021/11/15 07:26:22;;;;;;;45.25;34.95;;;;;;;18.33;31.03;95097.47;5056742;28;20459;-65
2021/11/15 07:28:50;;;;;;;37.95;31.38;;;;;;;19.15;29.39;95095.34;5067940;28;20040;-61
2021/11/15 07:31:18;;;;;;;38.55;31.45;;;;;;;19.59;29.38;95089.44;5068320;28;20447;-65
2021/11/15 07:33:45;;;;;;;38.08;30.75;;;;;;;19.62;29.50;95091.44;5060426;28;20045;-65
2021/11/15 07:36:13;;;;;;;37.05;30.58;;;;;;;20.47;27.58;95090.13;5056630;28;20052;-64
2021/11/15 07:38:40;;;;;;;42.45;33.00;;;;;;;19.70;29.44;95101.19;5049664;28;20055;-62
2021/11/15 07:41:07;;;;;;;39.42;33.05;;;;;;;20.37;28.08;95096.63;5089089;28;20044;-64
2021/11/15 07:43:35;;;;;;;37.88;32.20;;;;;;;20.14;28.55;95098.13;5076626;28;20041;-64
2021/11/15 07:46:02;;;;;;;42.72;33.55;;;;;;;20.16;28.36;95096.69;5076565;28;20048;-69
2021/11/15 07:48:29;;;;;;;40.15;33.65;;;;;;;19.77;29.46;95094.56;5068736;28;20372;-63
2021/11/15 07:50:57;;;;;;;41.50;33.30;;;;;;;20.10;29.13;95087.41;5074627;28;20055;-70
2021/11/15 07:53:24;;;;;;;38.05;33.70;;;;;;;20.29;29.07;95079.66;5076212;28;20059;-66
2021/11/15 07:55:52;;;;;;;41.85;34.67;;;;;;;20.52;28.17;95082.72;5075532;28;20451;-67
2021/11/15 07:58:21;;;;;;;46.72;35.55;;;;;;;20.33;28.14;95080.59;5066958;28;20045;-68
2021/11/15 08:00:49;;;;;;;42.33;37.45;;;;;;;21.11;27.38;95081.47;5089866;28;20048;-68
2021/11/15 08:03:16;;;;;;;47.33;37.83;;;;;;;21.14;27.80;95076.25;5074941;28;20048;-69
2021/11/15 08:05:44;;;;;;;42.40;36.78;;;;;;;20.87;27.54;95085.72;5076144;28;20051;-58
2021/11/15 08:08:11;;;;;;;42.08;36.70;;;;;;;22.00;26.49;95086.63;5072168;28;20079;-68
2021/11/15 08:10:39;;;;;;;46.13;37.80;;;;;;;21.62;26.39;95089.78;5089330;28;20576;-63
2021/11/15 08:13:06;;;;;;;46.63;37.72;;;;;;;21.99;26.00;95077.09;5076027;28;20059;-68
2021/11/15 08:15:33;;;;;;;45.33;39.10;;;;;;;21.80;25.95;95080.38;5058155;28;20438;-68
2021/11/15 08:18:02;;;;;;;42.72;38.03;;;;;;;22.23;25.83;95070.88;5052753;28;20360;-68
2021/11/15 08:20:32;;;;;;;41.60;36.70;;;;;;;22.22;25.51;95079.97;5070639;28;20060;-68
2021/11/15 08:23:05;;;;;;;45.78;38.40;;;;;;;22.55;25.11;95077.75;5059372;28;20041;-67
2021/11/15 08:26:10;;;;;;;43.75;37.58;;;;;;;22.31;26.25;95083.25;5052822;28;20052;-60
2021/11/15 08:28:37;;;;;;;39.53;35.05;;;;;;;22.94;24.71;95072.59;5060198;28;20047;-69
2021/11/15 08:31:06;;;;;;;38.65;31.58;;;;;;;23.30;24.01;95080.22;5066579;28;20128;-67
2021/11/15 08:33:34;;;;;;;37.80;32.50;;;;;;;22.88;24.59;95063.28;5071475;28;20052;-67
2021/11/15 08:36:01;;;;;;;37.88;31.63;;;;;;;22.96;24.26;95075.69;5075525;28;20048;-69
2021/11/15 08:38:46;;;;;;;37.67;31.08;;;;;;;22.97;24.51;95074.56;5073063;28;20048;-62
2021/11/15 08:41:15;;;;;;;34.25;28.02;;;;;;;23.55;23.46;95072.72;5075551;28;20455;-64
2021/11/15 08:43:44;;;;;;;33.10;27.70;;;;;;;23.13;23.82;95077.94;5060604;28;20040;-63
2021/11/15 08:46:15;;;;;;;29.88;26.20;;;;;;;22.45;24.86;95081.72;5055533;28;20360;-68
2021/11/15 08:48:44;;;;;;;31.50;26.52;;;;;;;22.61;24.80;95073.69;5051568;28;20076;-70
2021/11/15 08:51:12;;;;;;;35.78;26.90;;;;;;;22.82;24.70;95070.78;5064163;28;20044;-69
2021/11/15 08:53:41;;;;;;;29.92;26.35;;;;;;;23.20;24.10;95072.00;5054991;28;20060;-63
2021/11/15 08:56:09;;;;;;;32.22;26.13;;;;;;;22.70;24.81;95074.31;5055421;28;20056;-63
2021/11/15 08:58:37;;;;;;;29.88;25.33;;;;;;;22.75;24.72;95076.69;5059735;28;20040;-64
2021/11/15 09:01:07;;;;;;;30.27;26.40;;;;;;;22.68;24.69;95081.88;5075281;28;20052;-64
2021/11/15 09:03:37;;;;;;;31.60;25.23;;;;;;;23.30;23.76;95077.56;5074466;28;20056;-65
2021/11/15 09:06:10;;;;;;;30.60;25.10;;;;;;;23.24;24.06;95076.28;5075398;28;20780;-65
2021/11/15 09:08:38;;;;;;;30.08;26.58;;;;;;;22.70;24.96;95084.97;5074976;28;20048;-62
2021/11/15 09:11:06;;;;;;;26.77;24.00;;;;;;;23.14;24.08;95076.03;5073959;28;20048;-70
2021/11/15 09:13:34;;;;;;;25.88;23.27;;;;;;;21.98;25.73;95086.97;5062298;28;20498;-70
2021/11/15 09:16:01;;;;;;;27.83;23.98;;;;;;;22.11;25.98;95075.16;5054827;28;20055;-70
2021/11/15 09:18:28;;;;;;;27.30;23.70;;;;;;;21.87;25.91;95072.59;5051289;28;20478;-72
2021/11/15 09:20:56;;;;;;;27.58;23.80;;;;;;;22.11;25.82;95080.47;5092081;28;20066;-61
2021/11/15 09:23:23;;;;;;;29.95;23.52;;;;;;;22.46;25.35;95074.50;5095097;28;20044;-65
2021/11/15 09:25:51;;;;;;;28.40;21.40;;;;;;;21.89;25.96;95083.69;5094161;28;20055;-68
2021/11/15 09:28:18;;;;;;;25.40;21.33;;;;;;;22.21;25.61;95078.44;5091904;28;20051;-71
2021/11/15 09:30:47;;;;;;;23.52;19.35;;;;;;;22.24;25.42;95075.09;5074898;28;20048;-68
2021/11/15 09:33:14;;;;;;;25.42;20.98;;;;;;;23.04;24.30;95088.03;5072263;28;20052;-70
2021/11/15 09:35:48;;;;;;;23.38;20.88;;;;;;;22.87;24.92;95083.06;5054627;28;20451;-67
2021/11/15 09:38:19;;;;;;;25.45;21.52;;;;;;;22.39;25.37;95082.31;5054522;28;20056;-62
2021/11/15 09:40:56;;;;;;;21.65;17.67;;;;;;;22.75;24.53;95075.94;5074311;28;20048;-63
2021/11/15 09:43:24;;;;;;;18.55;16.33;;;;;;;22.48;24.71;95072.25;5074462;28;20351;-64
2021/11/15 09:45:51;;;;;;;20.20;18.05;;;;;;;23.32;23.90;95087.88;5074290;28;20463;-69
2021/11/15 09:48:19;;;;;;;20.27;16.58;;;;;;;22.48;24.48;95077.59;5059477;28;20060;-70
2021/11/15 09:50:46;;;;;;;19.23;17.13;;;;;;;23.07;23.93;95088.09;5072181;28;20060;-66
2021/11/15 09:53:13;;;;;;;17.88;15.55;;;;;;;23.71;22.98;95087.94;5074493;28;20049;-71
2021/11/15 09:55:40;;;;;;;15.15;13.55;;;;;;;22.92;23.74;95069.50;5072576;28;20056;-62
2021/11/15 09:58:08;;;;;;;17.33;12.50;;;;;;;23.47;22.51;95083.63;5073890;28;20048;-62
2021/11/15 10:00:39;;;;;;;14.80;13.27;;;;;;;23.61;22.46;95070.56;5073938;28;20052;-60
2021/11/15 10:03:06;;;;;;;14.77;13.23;;;;;;;24.26;21.48;95065.28;5064326;28;20041;-69
2021/11/15 10:05:34;;;;;;;13.25;11.73;;;;;;;24.03;21.49;95067.94;5054100;28;20076;-70
2021/11/15 10:08:05;;;;;;;13.90;11.55;;;;;;;23.12;22.25;95079.06;5071161;28;20040;-61
2021/11/15 10:10:45;;;;;;;13.95;12.38;;;;;;;23.22;22.47;95083.88;5056994;28;20056;-62
2021/11/15 10:13:19;;;;;;;14.57;11.85;;;;;;;24.31;21.07;95089.06;5054019;28;20061;-58
2021/11/15 10:16:03;;;;;;;14.25;12.32;;;;;;;23.93;21.19;95093.28;5053235;28;20067;-67
2021/11/15 10:18:45;;;;;;;14.00;12.07;;;;;;;23.45;21.78;95088.53;5050653;28;20068;-59
2021/11/15 10:21:35;;;;;;;15.43;12.67;;;;;;;24.50;20.84;95080.97;5063313;28;20367;-61
2021/11/15 10:24:06;;;;;;;13.95;12.63;;;;;;;23.65;22.24;95072.19;5044983;28;20048;-62
2021/11/15 10:26:44;;;;;;;16.17;13.18;;;;;;;24.02;21.30;95092.31;5060052;28;20048;-59
2021/11/15 10:29:11;;;;;;;13.23;11.93;;;;;;;23.67;21.45;95072.59;5078154;28;20044;-56
2021/11/15 10:31:46;;;;;;;17.42;12.88;;;;;;;23.86;21.40;95079.81;5077389;28;20071;-69
2021/11/15 10:34:21;;;;;;;13.68;12.20;;;;;;;23.27;21.92;95075.59;5077509;28;20056;-57
2021/11/15 10:36:48;;;;;;;12.27;11.07;;;;;;;23.14;22.00;95076.81;5075954;28;20048;-60
2021/11/15 10:39:18;;;;;;;12.55;11.25;;;;;;;23.18;22.17;95077.69;5073646;28;20462;-60
2021/11/15 10:41:56;;;;;;;15.05;11.90;;;;;;;24.17;20.93;95073.50;5077799;28;20079;-60
2021/11/15 10:44:23;;;;;;;12.38;11.02;;;;;;;23.19;22.19;95068.56;5077647;28;20044;-67
2021/11/15 10:46:52;;;;;;;11.73;10.52;;;;;;;23.76;21.41;95053.72;5077872;28;20044;-68
2021/11/15 10:49:21;;;;;;;14.88;12.18;;;;;;;24.71;20.58;95066.38;5054912;28;20061;-68
2021/11/15 10:51:55;;;;;;;14.98;10.25;;;;;;;24.32;20.67;95058.53;5093659;28;20048;-69
2021/11/15 10:57:19;;;;;;;12.15;10.95;;;;;;;23.45;21.54;95075.19;5098198;28;20044;-67
2021/11/15 11:00:11;;;;;;;12.02;10.82;;;;;;;23.51;21.38;95069.22;5092684;28;20047;-67
2021/11/15 11:02:40;;;;;;;13.73;11.90;;;;;;;23.62;21.61;95058.75;5062342;28;20051;-57
2021/11/15 11:05:18;;;;;;;12.25;10.75;;;;;;;25.50;19.31;95071.72;5067702;28;20048;-60
2021/11/15 11:07:48;;;;;;;12.68;11.30;;;;;;;24.18;20.83;95074.28;5057324;28;20047;-57
2021/11/15 11:10:18;;;;;;;11.43;10.18;;;;;;;24.20;20.58;95072.03;5069469;28;20052;-57
2021/11/15 11:13:04;;;;;;;13.55;10.50;;;;;;;24.13;20.74;95066.56;5090664;28;20364;-65
2021/11/15 11:26:36;;;;;;;14.82;11.38;;;;;;;22.40;22.56;95065.22;5058967;28;20371;-58
2021/11/15 11:29:11;;;;;;;12.73;10.70;;;;;;;23.06;21.69;95059.13;5048480;28;20048;-63
2021/11/15 11:31:42;;;;;;;14.25;11.23;;;;;;;23.41;21.38;95068.97;5068329;28;20055;-63
2021/11/15 11:34:10;;;;;;;15.13;11.35;;;;;;;23.56;21.40;95054.84;5073845;28;20055;-61
2021/11/15 11:36:37;;;;;;;14.48;13.07;;;;;;;23.93;20.59;95063.94;5065940;28;20344;-61
2021/11/15 11:39:08;;;;;;;12.80;11.00;;;;;;;23.94;20.65;95070.84;5070905;28;20123;-64